Time;durP1;ratioP1;P1;durP2;ratioP2;P2;SDS_P1;SDS_P2;PMS_P1;PMS_P2;Temp;Humidity;BMP_temperature;BMP_pressure;BME280_temperature;BME280_humidity;BME280_pressure;Samples;Min_cycle;Max_cycle;Signal;HPM_P1;HPM_P2
2022/06/05 00:00:21;;;;;;;;;;;563.60;2432.00;;;;;;5072801;28;19963;-79
2022/06/05 00:02:55;;;;;;;;;;;563.60;2432.00;;;;;;5073669;28;20042;-78
2022/06/05 00:05:33;;;;;;;;;;;563.50;2432.00;;;;;;5072870;28;19912;-77
2022/06/05 00:08:02;;;;;;;;;;;563.50;2432.00;;;;;;5073333;28;19905;-76
2022/06/05 00:10:31;;;;;;;;;;;563.50;2432.00;;;;;;5072968;28;19911;-77
2022/06/05 00:13:03;;;;;;;;;;;563.40;2432.00;;;;;;5073418;28;19905;-78
2022/06/05 00:15:29;;;;;;;;;;;563.40;2432.00;;;;;;5073315;28;19916;-77
2022/06/05 00:17:55;;;;;;;;;;;563.40;2432.00;;;;;;5072770;28;20770;-77
2022/06/05 00:20:20;;;;;;;;;;;563.40;2432.00;;;;;;5073378;28;19912;-80
2022/06/05 00:22:46;;;;;;;;;;;563.40;2432.00;;;;;;5069448;28;19905;-78
2022/06/05 00:25:13;;;;;;;;;;;563.40;2432.00;;;;;;5062915;28;19947;-78
2022/06/05 00:27:50;;;;;;;;;;;563.40;2432.00;;;;;;5072919;28;19904;-79
2022/06/05 00:30:23;;;;;;;;;;;563.40;2432.00;;;;;;5073062;28;19904;-78
2022/06/05 00:32:56;;;;;;;;;;;563.40;2432.00;;;;;;5072804;28;19905;-79
2022/06/05 00:35:22;;;;;;;;;;;563.30;2432.00;;;;;;5072433;28;19956;-77
2022/06/05 00:38:01;;;;;;;;;;;563.30;2432.00;;;;;;5062663;28;20266;-77
2022/06/05 00:40:29;;;;;;;;;;;563.30;2432.00;;;;;;5087903;28;19951;-81
2022/06/05 00:42:57;;;;;;;;;;;563.20;2432.00;;;;;;5076877;28;20007;-78
2022/06/05 00:45:22;;;;;;;;;;;563.20;2432.00;;;;;;5072474;28;19905;-77
2022/06/05 00:47:48;;;;;;;;;;;563.20;2432.00;;;;;;5072380;28;19904;-80
2022/06/05 00:50:19;;;;;;;;;;;538.50;2406.40;;;;;;5072406;28;19905;-78
2022/06/05 00:52:49;;;;;;;;;;;538.50;2406.40;;;;;;5072171;28;19995;-78
2022/06/05 00:55:15;;;;;;;;;;;538.40;2406.40;;;;;;5058536;28;20006;-79
2022/06/05 00:57:41;;;;;;;;;;;538.40;2406.40;;;;;;5072320;28;19904;-78
2022/06/05 01:00:15;;;;;;;;;;;538.40;2406.40;;;;;;5072445;28;19950;-77
2022/06/05 01:02:42;;;;;;;;;;;538.40;2406.40;;;;;;5058659;28;19904;-77
2022/06/05 01:05:09;;;;;;;;;;;538.30;2406.40;;;;;;5072338;28;19957;-77
2022/06/05 01:07:35;;;;;;;;;;;538.20;2406.40;;;;;;5072154;28;19905;-76
2022/06/05 01:10:00;;;;;;;;;;;538.20;2406.40;;;;;;5072167;28;20347;-76
2022/06/05 01:12:32;;;;;;;;;;;538.20;2406.40;;;;;;5070886;28;20248;-78
2022/06/05 01:15:01;;;;;;;;;;;538.10;2406.40;;;;;;5072126;28;20393;-80
2022/06/05 01:17:47;;;;;;;;;;;538.10;2406.40;;;;;;5072001;28;19943;-77
2022/06/05 01:20:21;;;;;;;;;;;538.00;2406.40;;;;;;5072313;28;19996;-78
2022/06/05 01:23:08;;;;;;;;;;;537.90;2406.40;;;;;;5071950;28;19908;-77
2022/06/05 01:25:33;;;;;;;;;;;537.80;2406.40;;;;;;5072076;28;19913;-76
2022/06/05 01:28:03;;;;;;;;;;;537.90;2406.40;;;;;;5057679;28;20484;-84
2022/06/05 01:30:29;;;;;;;;;;;537.90;2406.40;;;;;;5083513;28;19912;-81
2022/06/05 01:32:58;;;;;;;;;;;537.90;2406.40;;;;;;5074967;28;20366;-78
2022/06/05 01:35:26;;;;;;;;;;;537.80;2406.40;;;;;;5071642;28;20359;-79
2022/06/05 01:37:59;;;;;;;;;;;537.80;2406.40;;;;;;5071680;28;20003;-80
2022/06/05 01:40:28;;;;;;;;;;;537.70;2406.40;;;;;;5071563;28;19908;-77
2022/06/05 01:43:15;;;;;;;;;;;537.70;2406.40;;;;;;5071347;28;19917;-80
2022/06/05 01:45:44;;;;;;;;;;;537.70;2406.40;;;;;;5062732;28;20314;-78
2022/06/05 01:48:12;;;;;;;;;;;537.70;2406.40;;;;;;5067722;28;19904;-78
2022/06/05 01:50:41;;;;;;;;;;;537.60;2406.40;;;;;;5063501;28;19904;-77
2022/06/05 01:53:10;;;;;;;;;;;537.60;2406.40;;;;;;5066443;28;19904;-79
2022/06/05 01:55:43;;;;;;;;;;;512.90;2380.80;;;;;;5071143;28;19904;-76
2022/06/05 01:58:11;;;;;;;;;;;512.90;2380.80;;;;;;5071457;28;19927;-77
2022/06/05 02:00:36;;;;;;;;;;;512.80;2380.80;;;;;;5071079;28;19904;-77
2022/06/05 02:03:05;;;;;;;;;;;512.80;2380.80;;;;;;5071185;28;20441;-77
2022/06/05 02:05:37;;;;;;;;;;;512.70;2380.80;;;;;;5071171;28;19905;-78
2022/06/05 02:08:08;;;;;;;;;;;512.80;2380.80;;;;;;5071286;28;19904;-80
2022/06/05 02:10:38;;;;;;;;;;;512.90;2380.80;;;;;;5071027;28;20319;-78
2022/06/05 02:13:04;;;;;;;;;;;512.90;2380.80;;;;;;5072320;28;20453;-79
2022/06/05 02:15:30;;;;;;;;;;;512.90;2380.80;;;;;;5071370;28;19943;-79
2022/06/05 02:17:56;;;;;;;;;;;512.90;2380.80;;;;;;5071097;28;19904;-77
2022/06/05 02:20:22;;;;;;;;;;;537.60;2406.40;;;;;;5071285;28;19904;-77
2022/06/05 02:22:49;;;;;;;;;;;537.60;2406.40;;;;;;5075363;28;19904;-77
2022/06/05 02:25:16;;;;;;;;;;;537.60;2406.40;;;;;;5073660;28;19935;-77
2022/06/05 02:27:41;;;;;;;;;;;512.90;2380.80;;;;;;5072207;28;19905;-80
2022/06/05 02:30:08;;;;;;;;;;;537.60;2406.40;;;;;;5071063;28;19950;-78
2022/06/05 02:32:48;;;;;;;;;;;512.90;2380.80;;;;;;5070876;28;19904;-79
2022/06/05 02:35:22;;;;;;;;;;;512.70;2380.80;;;;;;5071316;28;19910;-79
2022/06/05 02:37:47;;;;;;;;;;;512.60;2380.80;;;;;;5070857;28;20407;-78
2022/06/05 02:40:30;;;;;;;;;;;512.60;2380.80;;;;;;5063906;28;19951;-78
2022/06/05 02:42:55;;;;;;;;;;;512.60;2380.80;;;;;;5066136;28;19923;-79
2022/06/05 02:45:21;;;;;;;;;;;512.70;2380.80;;;;;;5070661;28;19995;-76
2022/06/05 02:47:52;;;;;;;;;;;512.80;2380.80;;;;;;5086119;28;19904;-79
2022/06/05 02:50:21;;;;;;;;;;;512.90;2380.80;;;;;;5057272;28;20351;-77
2022/06/05 02:52:48;;;;;;;;;;;512.90;2380.80;;;;;;5070810;28;19905;-78
2022/06/05 02:55:20;;;;;;;;;;;512.80;2380.80;;;;;;5070541;28;19987;-78
2022/06/05 02:57:45;;;;;;;;;;;512.70;2380.80;;;;;;5071305;28;19904;-81
2022/06/05 03:00:13;;;;;;;;;;;512.70;2380.80;;;;;;5072493;28;19956;-76
2022/06/05 03:05:22;;;;;;;;;;;512.80;2380.80;;;;;;5088757;28;19922;-79
2022/06/05 03:07:49;;;;;;;;;;;512.70;2380.80;;;;;;5084902;28;19975;-80
2022/06/05 03:10:14;;;;;;;;;;;512.60;2380.80;;;;;;5071090;28;19905;-78
2022/06/05 03:12:40;;;;;;;;;;;512.50;2380.80;;;;;;5070719;28;19911;-78
2022/06/05 03:15:06;;;;;;;;;;;512.40;2380.80;;;;;;5070970;28;19904;-79
2022/06/05 03:17:32;;;;;;;;;;;512.40;2380.80;;;;;;5072945;28;19904;-78
2022/06/05 03:19:58;;;;;;;;;;;512.40;2380.80;;;;;;5082940;28;19904;-79
2022/06/05 03:22:24;;;;;;;;;;;512.50;2380.80;;;;;;5084984;28;19904;-77
2022/06/05 03:24:50;;;;;;;;;;;512.50;2380.80;;;;;;5071122;28;20359;-82
2022/06/05 03:27:15;;;;;;;;;;;512.50;2380.80;;;;;;5070984;28;19915;-80
2022/06/05 03:29:41;;;;;;;;;;;512.50;2380.80;;;;;;5071808;28;19949;-79
2022/06/05 03:32:06;;;;;;;;;;;512.40;2380.80;;;;;;5070974;28;19944;-77
2022/06/05 03:34:32;;;;;;;;;;;512.40;2380.80;;;;;;5070540;28;19905;-78
2022/06/05 03:36:58;;;;;;;;;;;512.50;2380.80;;;;;;5073904;28;19981;-79
2022/06/05 03:39:23;;;;;;;;;;;512.50;2380.80;;;;;;5074419;28;20063;-79
2022/06/05 03:41:49;;;;;;;;;;;512.60;2380.80;;;;;;5074249;28;19916;-79
2022/06/05 03:44:14;;;;;;;;;;;512.70;2380.80;;;;;;5074452;28;19916;-79
2022/06/05 03:46:40;;;;;;;;;;;512.60;2380.80;;;;;;5075593;28;19911;-78
2022/06/05 03:49:10;;;;;;;;;;;512.70;2380.80;;;;;;5074583;28;19904;-79
2022/06/05 03:51:36;;;;;;;;;;;512.90;2380.80;;;;;;5075360;28;20006;-78
2022/06/05 03:54:02;;;;;;;;;;;512.80;2380.80;;;;;;5074898;28;19912;-79
2022/06/05 03:56:29;;;;;;;;;;;512.90;2380.80;;;;;;5074301;28;19979;-79
2022/06/05 03:58:55;;;;;;;;;;;537.70;2406.40;;;;;;5076492;28;19975;-79
2022/06/05 04:01:21;;;;;;;;;;;537.90;2406.40;;;;;;5076619;28;19904;-77
2022/06/05 04:03:47;;;;;;;;;;;538.00;2406.40;;;;;;5074348;28;19919;-78
2022/06/05 04:06:14;;;;;;;;;;;538.10;2406.40;;;;;;5075271;28;19904;-77
2022/06/05 04:08:40;;;;;;;;;;;538.00;2406.40;;;;;;5074912;28;19904;-77
2022/06/05 04:11:05;;;;;;;;;;;538.00;2406.40;;;;;;5073386;28;19912;-77
2022/06/05 04:13:31;;;;;;;;;;;537.90;2406.40;;;;;;5072350;28;19904;-79
2022/06/05 04:15:57;;;;;;;;;;;538.00;2406.40;;;;;;5073323;28;19950;-81
2022/06/05 04:18:22;;;;;;;;;;;538.10;2406.40;;;;;;5073168;28;19998;-78
2022/06/05 04:20:48;;;;;;;;;;;538.10;2406.40;;;;;;5073463;28;19905;-79
2022/06/05 04:23:13;;;;;;;;;;;538.20;2406.40;;;;;;5073519;28;19908;-79
2022/06/05 04:25:43;;;;;;;;;;;538.40;2406.40;;;;;;5073780;28;19905;-78
2022/06/05 04:28:08;;;;;;;;;;;538.40;2406.40;;;;;;5076137;28;20017;-77
2022/06/05 04:30:38;;;;;;;;;;;538.30;2406.40;;;;;;5086105;28;20322;-78
2022/06/05 04:33:04;;;;;;;;;;;538.00;2406.40;;;;;;5073216;28;19912;-78
2022/06/05 04:35:30;;;;;;;;;;;538.10;2406.40;;;;;;5073560;28;19926;-80
2022/06/05 04:37:56;;;;;;;;;;;538.20;2406.40;;;;;;5073669;28;19905;-79
2022/06/05 04:40:21;;;;;;;;;;;538.20;2406.40;;;;;;5087593;28;19904;-79
2022/06/05 04:42:47;;;;;;;;;;;538.20;2406.40;;;;;;5073516;28;20007;-79
2022/06/05 04:45:12;;;;;;;;;;;538.40;2406.40;;;;;;5072987;28;20006;-79
2022/06/05 04:47:40;;;;;;;;;;;538.50;2406.40;;;;;;5072724;28;19904;-79
2022/06/05 04:50:06;;;;;;;;;;;563.20;2432.00;;;;;;5074118;28;19904;-79
2022/06/05 04:52:32;;;;;;;;;;;563.50;2432.00;;;;;;5072957;28;19904;-79
2022/06/05 04:54:57;;;;;;;;;;;563.50;2432.00;;;;;;5073312;28;19965;-80
2022/06/05 04:57:23;;;;;;;;;;;563.60;2432.00;;;;;;5073486;28;19904;-78
2022/06/05 04:59:49;;;;;;;;;;;563.80;2432.00;;;;;;5073051;28;19998;-78
2022/06/05 05:02:17;;;;;;;;;;;563.90;2432.00;;;;;;5073518;28;19904;-80
2022/06/05 05:04:42;;;;;;;;;;;563.90;2432.00;;;;;;5072990;28;19999;-79
2022/06/05 05:07:08;;;;;;;;;;;564.00;2432.00;;;;;;5072909;28;20385;-78
2022/06/05 05:09:33;;;;;;;;;;;564.00;2432.00;;;;;;5072515;28;20370;-81
2022/06/05 05:11:59;;;;;;;;;;;564.00;2432.00;;;;;;5072809;28;19965;-78
2022/06/05 05:14:24;;;;;;;;;;;564.10;2432.00;;;;;;5072388;28;20552;-78
2022/06/05 05:16:50;;;;;;;;;;;;;;;;;;5072510;28;19904;-79
2022/06/05 05:19:16;;;;;;;;;;;;;;;;;;5072192;28;19987;-79
2022/06/05 05:21:42;;;;;;;;;;;;;;;;;;5071931;28;20951;-76
2022/06/05 05:24:08;;;;;;;;;;;;;;;;;;5072795;28;20303;-77
2022/06/05 05:26:34;;;;;;;;;;;;;;;;;;5072106;28;19908;-77
2022/06/05 05:29:00;;;;;;;;;;;;;;;;;;5071651;28;20275;-78
2022/06/05 05:31:28;;;;;;;;;;;614.60;2432.00;;;;;;5071774;28;19967;-79
2022/06/05 05:33:54;;;;;;;;;;;;;;;;;;5071761;28;19904;-78
2022/06/05 05:36:20;;;;;;;;;;;614.90;2432.00;;;;;;5071723;28;20262;-77
2022/06/05 05:44:20;;;;;;;;;;;640.20;2432.00;;;;;;5086314;28;19957;-79
2022/06/05 05:46:46;;;;;;;;;;;640.40;2432.00;;;;;;5072828;28;19991;-79
2022/06/05 05:49:12;;;;;;;;;;;640.80;2432.00;;;;;;5077259;28;20374;-80
2022/06/05 05:51:38;;;;;;;;;;;640.50;2432.00;;;;;;5075681;28;19910;-78
2022/06/05 05:54:03;;;;;;;;;;;640.40;2432.00;;;;;;5071740;28;19904;-79
2022/06/05 05:56:29;;;;;;;;;;;640.40;2432.00;;;;;;5072011;28;19936;-79
2022/06/05 05:58:55;;;;;;;;;;;640.60;2432.00;;;;;;5070935;28;19932;-79
2022/06/05 06:01:20;;;;;;;;;;;;;;;;;;5071726;28;19915;-78
2022/06/05 06:03:46;;;;;;;;;;;;;;;;;;5072987;28;20274;-79
2022/06/05 06:06:12;;;;;;;;;;;;;;;;;;5071640;28;20407;-82
2022/06/05 06:08:38;;;;;;;;;;;;;;;;;;5072498;28;19904;-82
2022/06/05 06:11:04;;;;;;;;;;;;;;;;;;5072014;28;20014;-84
2022/06/05 06:13:30;;;;;;;;;;;;;;;;;;5083932;28;19904;-84
2022/06/05 06:15:55;;;;;;;;;;;666.30;2432.00;;;;;;5081561;28;19904;-85
2022/06/05 06:18:21;;;;;;;;;;;666.30;2432.00;;;;;;5075473;28;19905;-82
2022/06/05 06:20:47;;;;;;;;;;;666.30;2432.00;;;;;;5073574;28;19995;-82
2022/06/05 06:23:14;;;;;;;;;;;;;;;;;;5072643;28;19905;-81
2022/06/05 06:25:39;;;;;;;;;;;;;;;;;;5077316;28;20392;-81
2022/06/05 06:28:05;;;;;;;;;;;;;;;;;;5081201;28;19905;-83
2022/06/05 06:30:31;;;;;;;;;;;;;;;;;;5073391;28;19988;-83
2022/06/05 06:32:57;;;;;;;;;;;691.80;2432.00;;;;;;5072027;28;19950;-83
2022/06/05 06:35:23;;;;;;;;;;;691.60;2432.00;;;;;;5071638;28;20002;-82
2022/06/05 06:37:49;;;;;;;;;;;691.50;2432.00;;;;;;5072325;28;19955;-85
2022/06/05 06:40:15;;;;;;;;;;;691.50;2432.00;;;;;;5072558;28;19905;-84
2022/06/05 06:42:40;;;;;;;;;;;691.60;2432.00;;;;;;5074030;28;19966;-85
2022/06/05 06:45:06;;;;;;;;;;;691.70;2432.00;;;;;;5072029;28;19974;-84
2022/06/05 06:47:32;;;;;;;;;;;;;;;;;;5071158;28;19905;-83
2022/06/05 06:49:58;;;;;;;;;;;;;;;;;;5072437;28;19905;-83
2022/06/05 06:52:24;;;;;;;;;;;;;;;;;;5071676;28;19904;-83
2022/06/05 06:54:50;;;;;;;;;;;;;;;;;;5071875;28;19944;-83
2022/06/05 06:57:16;;;;;;;;;;;;;;;;;;5071517;28;20003;-81
2022/06/05 06:59:42;;;;;;;;;;;;;;;;;;5071506;28;19943;-81
2022/06/05 07:02:08;;;;;;;;;;;;;;;;;;5071283;28;19955;-82
2022/06/05 07:04:34;;;;;;;;;;;;;;;;;;5071554;28;20022;-81
2022/06/05 07:07:00;;;;;;;;;;;717.20;2432.00;;;;;;5057378;28;19904;-83
2022/06/05 07:09:25;;;;;;;;;;;;;;;;;;5072803;28;19904;-84
2022/06/05 07:11:51;;;;;;;;;;;;;;;;;;5075628;28;19999;-82
2022/06/05 07:14:17;;;;;;;;;;;;;;;;;;5075250;28;19904;-82
2022/06/05 07:16:43;;;;;;;;;;;;;;;;;;5075101;28;19911;-83
2022/06/05 07:19:09;;;;;;;;;;;717.10;2432.00;;;;;;5076448;28;19904;-81
2022/06/05 07:21:34;;;;;;;;;;;717.10;2432.00;;;;;;5077122;28;19911;-81
2022/06/05 07:24:00;;;;;;;;;;;717.20;2432.00;;;;;;5063032;28;20003;-82
2022/06/05 07:26:26;;;;;;;;;;;;;;;;;;5074994;28;20003;-83
2022/06/05 07:28:54;;;;;;;;;;;;;;;;;;5076344;28;19957;-83
2022/06/05 07:31:20;;;;;;;;;;;;;;;;;;5076484;28;19909;-85
2022/06/05 07:33:46;;;;;;;;;;;;;;;;;;5075602;28;19948;-86
2022/06/05 07:36:12;;;;;;;;;;;;;;;;;;5087839;28;19905;-85
2022/06/05 07:38:37;;;;;;;;;;;;;;;;;;5075765;28;19943;-83
2022/06/05 07:41:03;;;;;;;;;;;;;;;;;;5074643;28;19962;-80
2022/06/05 07:43:29;;;;;;;;;;;;;;;;;;5088506;28;19904;-82
2022/06/05 07:45:57;;;;;;;;;;;;;;;;;;5075197;28;19904;-81
2022/06/05 07:48:22;;;;;;;;;;;;;;;;;;5074827;28;20024;-82
2022/06/05 07:56:18;;;;;;;;;;;;;;;;;;5075421;28;19912;-83
2022/06/05 07:58:44;;;;;;;;;;;;;;;;;;5075936;28;19904;-85
2022/06/05 08:01:10;;;;;;;;;;;;;;;;;;5076921;28;20355;-85
2022/06/05 08:03:35;;;;;;;;;;;;;;;;;;5075479;28;19912;-80
2022/06/05 08:06:01;;;;;;;;;;;;;;;;;;5073784;28;19904;-80
2022/06/05 08:08:27;;;;;;;;;;;;;;;;;;5075250;28;19904;-79
2022/06/05 08:10:53;;;;;;;;;;;;;;;;;;5074672;28;20033;-81
2022/06/05 08:13:19;;;;;;;;;;;;;;;;;;5074032;28;20338;-80
2022/06/05 08:15:45;;;;;;;;;;;;;;;;;;5075021;28;19908;-80
2022/06/05 08:18:11;;;;;;;;;;;;;;;;;;5059540;28;19912;-79
2022/06/05 08:20:37;;;;;;;;;;;;;;;;;;5073826;28;19911;-76
2022/06/05 08:23:03;;;;;;;;;;;;;;;;;;5085862;28;20404;-81
2022/06/05 08:25:29;;;;;;;;;;;;;;;;;;5061762;28;19943;-81
2022/06/05 08:27:55;;;;;;;;;;;;;;;;;;5084573;28;19950;-80
2022/06/05 08:30:20;;;;;;;;;;;;;;;;;;5080949;28;19928;-82
2022/06/05 08:32:46;;;;;;;;;;;;;;;;;;5073490;28;20274;-82
2022/06/05 08:35:12;;;;;;;;;;;;;;;;;;5073807;28;19905;-81
2022/06/05 08:43:07;;;;;;;;;;;;;;;;;;5074534;28;19924;-80
2022/06/05 08:45:33;;;;;;;;;;;;;;;;;;5073301;28;19912;-83
2022/06/05 08:47:59;;;;;;;;;;;;;;;;;;5073603;28;19904;-80
2022/06/05 08:50:25;;;;;;;;;;;;;;;;;;5073395;28;20279;-80
2022/06/05 08:52:51;;;;;;;;;;;;;;;;;;5073373;28;19904;-82
2022/06/05 08:55:17;;;;;;;;;;;;;;;;;;5074377;28;19926;-80
2022/06/05 08:57:43;;;;;;;;;;;;;;;;;;5074512;28;19904;-81
2022/06/05 09:00:09;;;;;;;;;;;;;;;;;;5073881;28;19904;-79
2022/06/05 09:02:35;;;;;;;;;;;;;;;;;;5073124;28;20370;-79
2022/06/05 09:05:01;;;;;;;;;;;;;;;;;;5067020;28;20042;-80
2022/06/05 09:07:48;;;;;;;;;;;768.10;1868.80;;;;;;5072398;28;19917;-78
2022/06/05 09:10:21;;;;;;;;;;;768.50;1843.20;;;;;;5065717;28;19983;-78
2022/06/05 09:13:01;;;;;;;;;;;768.10;1766.40;;;;;;5069656;28;20003;-77
2022/06/05 09:15:46;;;;;;;;;;;768.00;1766.40;;;;;;5076775;28;19944;-78
2022/06/05 09:18:21;;;;;;;;;;;768.00;1792.00;;;;;;5075143;28;19915;-77
2022/06/05 09:20:51;;;;;;;;;;;768.10;1715.20;;;;;;5076439;28;19905;-77
2022/06/05 09:23:36;;;;;;;;;;;768.40;1715.20;;;;;;5087973;28;19904;-78
2022/06/05 09:26:05;;;;;;;;;;;768.80;1664.00;;;;;;5072984;28;19905;-79
2022/06/05 09:28:35;;;;;;;;;;;768.90;1587.20;;;;;;5071946;28;19905;-77
2022/06/05 09:31:01;;;;;;;;;;;;;;;;;;5071957;28;19912;-80
2022/06/05 09:33:30;;;;;;;;;;;;;;;;;;5071966;28;20281;-78
2022/06/05 09:36:01;;;;;;;;;;;819.40;1459.20;;;;;;5072000;28;20605;-80
2022/06/05 09:38:27;;;;;;;;;;;;;;;;;;5072143;28;19905;-77
2022/06/05 09:41:09;;;;;;;;;;;819.90;1408.00;;;;;;5072233;28;20359;-79
2022/06/05 09:43:49;;;;;;;;;;;820.00;1408.00;;;;;;5071554;28;19915;-82
2022/06/05 09:46:24;;;;;;;;;;;819.70;1433.60;;;;;;5072273;28;19904;-83
2022/06/05 09:49:07;;;;;;;;;;;819.90;1408.00;;;;;;5071866;28;19908;-85
2022/06/05 09:51:36;;;;;;;;;;;819.70;1382.40;;;;;;5068891;28;19927;-83
2022/06/05 09:54:17;;;;;;;;;;;819.20;1459.20;;;;;;5070726;28;20257;-81
2022/06/05 09:59:32;;;;;;;;;;;794.50;1433.60;;;;;;5070675;28;20286;-83
2022/06/05 10:01:59;;;;;;;;;;;819.60;1382.40;;;;;;5071653;28;19922;-78
2022/06/05 10:04:29;;;;;;;;;;;844.80;1356.80;;;;;;5071723;28;20370;-79
2022/06/05 10:07:05;;;;;;;;;;;844.80;1305.60;;;;;;5070878;28;19912;-77
2022/06/05 10:09:31;;;;;;;;;;;;;;;;;;5064524;28;20309;-75
2022/06/05 10:11:59;;;;;;;;;;;845.10;1305.60;;;;;;5070779;28;19979;-75
2022/06/05 10:14:30;;;;;;;;;;;845.20;1305.60;;;;;;5071546;28;19951;-77
2022/06/05 10:17:02;;;;;;;;;;;845.20;1331.20;;;;;;5070191;28;19966;-77
2022/06/05 10:19:47;;;;;;;;;;;820.00;1280.00;;;;;;5076638;28;19908;-80
2022/06/05 10:22:22;;;;;;;;;;;819.60;1280.00;;;;;;5074988;28;19976;-78
2022/06/05 10:24:54;;;;;;;;;;;820.00;1280.00;;;;;;5067077;28;20367;-78
2022/06/05 10:27:20;;;;;;;;;;;844.90;1305.60;;;;;;5068205;28;19904;-80
2022/06/05 10:29:48;;;;;;;;;;;845.40;1254.40;;;;;;5070732;28;19908;-80
2022/06/05 10:32:25;;;;;;;;;;;844.80;1254.40;;;;;;5069702;28;19915;-81
2022/06/05 10:35:10;;;;;;;;;;;820.00;1254.40;;;;;;5068995;28;20346;-81
2022/06/05 10:37:44;;;;;;;;;;;845.20;1254.40;;;;;;5085023;28;19912;-80
2022/06/05 10:40:10;;;;;;;;;;;;;;;;;;5084698;28;20275;-79
2022/06/05 10:42:35;;;;;;;;;;;870.80;1203.20;;;;;;5071282;28;19921;-82
2022/06/05 10:45:04;;;;;;;;;;;871.20;1177.60;;;;;;5068265;28;19912;-80
2022/06/05 10:47:29;;;;;;;;;;;896.10;1177.60;;;;;;5089406;28;19905;-82
2022/06/05 10:49:55;;;;;;;;;;;871.30;1126.40;;;;;;5075809;28;20339;-80
2022/06/05 10:52:21;;;;;;;;;;;;;;;;;;5071918;28;19904;-81
2022/06/05 10:54:47;;;;;;;;;;;;;;;;;;5075207;28;19916;-81
2022/06/05 10:57:13;;;;;;;;;;;;;;;;;;5069747;28;19911;-81
2022/06/05 10:59:39;;;;;;;;;;;;;;;;;;5076661;28;19912;-81
2022/06/05 11:02:04;;;;;;;;;;;;;;;;;;5073402;28;19991;-83
2022/06/05 11:04:30;;;;;;;;;;;;;;;;;;5074648;28;19913;-82
2022/06/05 11:06:56;;;;;;;;;;;;;;;;;;5072064;28;19905;-82
2022/06/05 11:09:22;;;;;;;;;;;;;;;;;;5075030;28;19904;-85
2022/06/05 11:14:33;;;;;;;;;;;;;;;;;;5073044;28;19911;-84
2022/06/05 11:16:59;;;;;;;;;;;;;;;;;;5076709;28;20300;-83
2022/06/05 11:19:25;;;;;;;;;;;;;;;;;;5072598;28;19908;-82
2022/06/05 11:21:51;;;;;;;;;;;;;;;;;;5075089;28;19916;-78
2022/06/05 11:24:16;;;;;;;;;;;;;;;;;;5074758;28;19912;-82
2022/06/05 11:26:42;;;;;;;;;;;;;;;;;;5065104;28;19912;-85
2022/06/05 11:29:08;;;;;;;;;;;;;;;;;;5076456;28;19904;-86
2022/06/05 11:31:34;;;;;;;;;;;;;;;;;;5075365;28;19998;-85
2022/06/05 11:34:00;;;;;;;;;;;;;;;;;;5069108;28;19911;-83
2022/06/05 11:36:26;;;;;;;;;;;;;;;;;;5071250;28;19992;-84
2022/06/05 11:38:52;;;;;;;;;;;;;;;;;;5074194;28;19908;-84
2022/06/05 11:41:18;;;;;;;;;;;;;;;;;;5073334;28;19924;-83
2022/06/05 11:43:44;;;;;;;;;;;;;;;;;;5082677;28;19912;-85
2022/06/05 11:46:10;;;;;;;;;;;;;;;;;;5072128;28;19908;-83
2022/06/05 11:48:36;;;;;;;;;;;;;;;;;;5074241;28;19926;-84
2022/06/05 11:51:01;;;;;;;;;;;;;;;;;;5073276;28;20368;-85
2022/06/05 11:53:27;;;;;;;;;;;;;;;;;;5074216;28;20343;-84
2022/06/05 11:55:53;;;;;;;;;;;;;;;;;;5074195;28;20339;-83
2022/06/05 11:58:19;;;;;;;;;;;;;;;;;;5080318;28;19987;-81
2022/06/05 12:00:45;;;;;;;;;;;;;;;;;;5078312;28;20542;-86
2022/06/05 12:03:11;;;;;;;;;;;;;;;;;;5078441;28;19909;-85
2022/06/05 12:05:37;;;;;;;;;;;;;;;;;;5074227;28;19916;-84
2022/06/05 12:08:03;;;;;;;;;;;;;;;;;;5069382;28;19915;-84
2022/06/05 12:10:29;;;;;;;;;;;;;;;;;;5073818;28;19957;-85
2022/06/05 12:12:55;;;;;;;;;;;;;;;;;;5070019;28;19950;-86
2022/06/05 12:15:21;;;;;;;;;;;;;;;;;;5075915;28;19909;-81
2022/06/05 12:17:47;;;;;;;;;;;;;;;;;;5077266;28;19904;-82
2022/06/05 12:20:13;;;;;;;;;;;;;;;;;;5073828;28;19916;-86
2022/06/05 12:22:39;;;;;;;;;;;;;;;;;;5076945;28;20377;-80
2022/06/05 12:25:05;;;;;;;;;;;;;;;;;;5068241;28;20294;-82
2022/06/05 12:27:31;;;;;;;;;;;;;;;;;;5072659;28;19904;-83
2022/06/05 12:29:56;;;;;;;;;;;;;;;;;;5076430;28;20308;-83
2022/06/05 12:32:22;;;;;;;;;;;;;;;;;;5073782;28;19911;-84
2022/06/05 12:34:50;;;;;;;;;;;;;;;;;;5074010;28;19926;-82
2022/06/05 12:37:16;;;;;;;;;;;;;;;;;;5070260;28;19904;-85
2022/06/05 12:39:42;;;;;;;;;;;;;;;;;;5095679;28;19952;-85
2022/06/05 12:42:08;;;;;;;;;;;;;;;;;;5073803;28;19917;-81
2022/06/05 12:44:34;;;;;;;;;;;;;;;;;;5073242;28;19916;-85
2022/06/05 12:47:01;;;;;;;;;;;;;;;;;;5075768;28;20256;-85
2022/06/05 12:49:28;;;;;;;;;;;;;;;;;;5077131;28;19905;-85
2022/06/05 12:51:54;;;;;;;;;;;;;;;;;;5073150;28;19998;-85
2022/06/05 12:54:20;;;;;;;;;;;;;;;;;;5077549;28;20350;-85
2022/06/05 12:56:48;;;;;;;;;;;;;;;;;;5076624;28;19995;-86
2022/06/05 12:59:17;;;;;;;;;;;;;;;;;;5076488;28;19964;-85
2022/06/05 13:01:43;;;;;;;;;;;;;;;;;;5076820;28;19931;-82
2022/06/05 13:04:10;;;;;;;;;;;;;;;;;;5078113;28;20363;-85
2022/06/05 13:06:36;;;;;;;;;;;;;;;;;;5078001;28;19995;-85
2022/06/05 13:09:02;;;;;;;;;;;;;;;;;;5078602;28;20369;-87
2022/06/05 13:11:27;;;;;;;;;;;;;;;;;;5078713;28;19989;-84
2022/06/05 13:13:55;;;;;;;;;;;;;;;;;;5077544;28;19904;-84
2022/06/05 13:16:21;;;;;;;;;;;;;;;;;;5075637;28;19911;-82
2022/06/05 13:18:47;;;;;;;;;;;;;;;;;;5075407;28;19905;-82
2022/06/05 13:21:13;;;;;;;;;;;;;;;;;;5077155;28;20266;-82
2022/06/05 13:23:39;;;;;;;;;;;;;;;;;;5080779;28;19999;-85
2022/06/05 13:26:06;;;;;;;;;;;;;;;;;;5077580;28;19943;-84
2022/06/05 13:28:42;;;;;;;;;;;1178.00;793.60;;;;;;5077015;28;19915;-82
2022/06/05 13:31:14;;;;;;;;;;;1177.70;793.60;;;;;;5077109;28;19943;-81
2022/06/05 13:33:52;;;;;;;;;;;1178.00;793.60;;;;;;5077172;28;19904;-81
2022/06/05 13:36:26;;;;;;;;;;;1177.60;793.60;;;;;;5077765;28;19911;-80
2022/06/05 13:39:04;;;;;;;;;;;1203.20;768.00;;;;;;5069110;28;19991;-83
2022/06/05 13:41:38;;;;;;;;;;;1177.70;793.60;;;;;;5082136;28;19916;-84
2022/06/05 13:44:04;;;;;;;;;;;;;;;;;;5071641;28;19923;-82
2022/06/05 13:46:30;;;;;;;;;;;;;;;;;;5066162;28;19905;-79
2022/06/05 13:48:56;;;;;;;;;;;;;;;;;;5071769;28;19908;-79
2022/06/05 13:51:22;;;;;;;;;;;;;;;;;;5068761;28;19915;-82
2022/06/05 13:53:48;;;;;;;;;;;;;;;;;;5087543;28;19908;-81
2022/06/05 13:56:19;;;;;;;;;;;1178.20;768.00;;;;;;5066366;28;19904;-81
2022/06/05 13:59:05;;;;;;;;;;;1203.80;768.00;;;;;;5068555;28;19908;-83
2022/06/05 14:01:34;;;;;;;;;;;1203.60;768.00;;;;;;5070401;28;19905;-84
2022/06/05 14:04:21;;;;;;;;;;;1229.60;742.40;;;;;;5060381;28;19919;-82
2022/06/05 14:06:50;;;;;;;;;;;1229.20;742.40;;;;;;5074373;28;19952;-83
2022/06/05 14:09:34;;;;;;;;;;;1228.90;742.40;;;;;;5070676;28;19957;-82
2022/06/05 14:12:00;;;;;;;;;;;1229.70;716.80;;;;;;5065901;28;19905;-84
2022/06/05 14:14:36;;;;;;;;;;;1254.40;742.40;;;;;;5068701;28;20011;-84
2022/06/05 14:17:03;;;;;;;;;;;1254.70;742.40;;;;;;5073568;28;19912;-85
2022/06/05 14:19:31;;;;;;;;;;;1254.50;742.40;;;;;;5067409;28;19905;-85
2022/06/05 14:22:15;;;;;;;;;;;1229.70;742.40;;;;;;5071664;28;19966;-83
2022/06/05 14:24:41;;;;;;;;;;;1254.80;742.40;;;;;;5073535;28;19912;-83
2022/06/05 14:27:11;;;;;;;;;;;1178.00;768.00;;;;;;5072315;28;19904;-82
2022/06/05 14:29:39;;;;;;;;;;;1126.50;844.80;;;;;;5072780;28;19967;-82
2022/06/05 14:32:09;;;;;;;;;;;1050.30;896.00;;;;;;5071801;28;19911;-83
2022/06/05 14:34:40;;;;;;;;;;;1024.20;947.20;;;;;;5071588;28;19908;-82
2022/06/05 14:37:24;;;;;;;;;;;998.50;998.40;;;;;;5067156;28;19955;-83
2022/06/05 14:39:51;;;;;;;;;;;948.00;1024.00;;;;;;5079396;28;19963;-82
2022/06/05 14:42:20;;;;;;;;;;;947.20;1075.20;;;;;;5051811;28;19923;-82
2022/06/05 14:44:55;;;;;;;;;;;921.60;1126.40;;;;;;5063949;28;19912;-83
2022/06/05 14:47:24;;;;;;;;;;;896.40;1126.40;;;;;;5067322;28;19905;-83
2022/06/05 14:50:01;;;;;;;;;;;871.30;1177.60;;;;;;5069015;28;20335;-81
2022/06/05 14:52:42;;;;;;;;;;;870.80;1203.20;;;;;;5074056;28;19904;-81
2022/06/05 14:58:23;;;;;;;;;;;870.50;1228.80;;;;;;5062454;28;19911;-82
2022/06/05 15:00:54;;;;;;;;;;;870.40;1228.80;;;;;;5071387;28;19904;-82
2022/06/05 15:03:23;;;;;;;;;;;845.60;1254.40;;;;;;5071900;28;19904;-82
2022/06/05 15:05:51;;;;;;;;;;;845.60;1254.40;;;;;;5071575;28;19917;-82
2022/06/05 15:08:21;;;;;;;;;;;870.60;1254.40;;;;;;5071946;28;19935;-82
2022/06/05 15:10:53;;;;;;;;;;;870.50;1254.40;;;;;;5071415;28;19919;-83
2022/06/05 15:13:22;;;;;;;;;;;870.50;1254.40;;;;;;5062423;28;20003;-82
2022/06/05 15:15:56;;;;;;;;;;;870.80;1228.80;;;;;;5069668;28;19905;-83